Time;durP1;ratioP1;P1;durP2;ratioP2;P2;SDS_P1;SDS_P2;PMS_P1;PMS_P2;Temp;Humidity;BMP_temperature;BMP_pressure;BME280_temperature;BME280_humidity;BME280_pressure;Samples;Min_cycle;Max_cycle;Signal;HPM_P1;HPM_P2
2022/08/04 00:00:27;;;;;;;7.75;3.53;;;19.70;99.90;;;;;;5078381;28;20040;-80
2022/08/04 00:03:15;;;;;;;5.18;3.45;;;19.60;99.90;;;;;;5079100;28;20083;-80
2022/08/04 00:05:46;;;;;;;5.75;2.83;;;19.60;99.90;;;;;;5078812;28;20070;-81
2022/08/04 00:08:22;;;;;;;5.78;3.05;;;19.60;99.90;;;;;;5078696;28;20067;-80
2022/08/04 00:10:53;;;;;;;6.20;2.63;;;19.60;99.90;;;;;;5079468;28;20067;-79
2022/08/04 00:13:23;;;;;;;4.43;2.65;;;19.60;99.90;;;;;;5078960;28;20085;-79
2022/08/04 00:15:58;;;;;;;8.18;3.20;;;19.60;99.90;;;;;;5077651;28;20172;-80
2022/08/04 00:18:39;;;;;;;2.17;1.77;;;19.50;99.90;;;;;;5078574;28;20248;-81
2022/08/04 00:21:08;;;;;;;10.10;3.03;;;19.50;99.90;;;;;;5078719;28;20051;-80
2022/08/04 00:23:35;;;;;;;7.88;3.08;;;19.50;99.90;;;;;;5078270;28;20051;-80
2022/08/04 00:26:01;;;;;;;6.43;3.17;;;19.50;99.90;;;;;;5078331;28;20061;-80
2022/08/04 00:28:28;;;;;;;4.28;2.30;;;19.50;99.90;;;;;;5078850;28;20119;-80
2022/08/04 00:30:53;;;;;;;5.82;3.38;;;19.50;99.90;;;;;;5077906;28;20036;-80
2022/08/04 00:33:20;;;;;;;5.55;3.40;;;19.50;99.90;;;;;;5078656;28;20445;-81
2022/08/04 00:35:47;;;;;;;3.75;2.42;;;19.50;99.90;;;;;;5078992;28;20040;-80
2022/08/04 00:38:16;;;;;;;4.68;2.95;;;19.50;99.90;;;;;;5060556;28;20098;-80
2022/08/04 00:41:29;;;;;;;4.60;2.72;;;19.40;99.90;;;;;;5077853;28;20587;-80
2022/08/04 00:43:58;;;;;;;3.28;2.35;;;19.40;99.90;;;;;;5059187;28;20048;-81
2022/08/04 00:47:04;;;;;;;9.23;3.78;;;19.40;99.90;;;;;;5078561;28;20036;-81
2022/08/04 00:49:44;;;;;;;9.63;3.45;;;19.40;99.90;;;;;;5059987;28;20052;-80
2022/08/04 00:52:51;;;;;;;4.45;2.80;;;19.30;99.90;;;;;;5078344;28;20047;-80
2022/08/04 00:55:40;;;;;;;2.97;2.47;;;19.40;99.90;;;;;;5078178;28;20090;-80
2022/08/04 00:58:31;;;;;;;6.35;3.58;;;19.30;99.90;;;;;;5078266;28;20048;-81
2022/08/04 01:00:59;;;;;;;4.00;2.63;;;19.40;99.90;;;;;;5060385;28;20075;-80
2022/08/04 01:03:52;;;;;;;10.68;3.42;;;19.30;99.90;;;;;;5060129;28;20232;-81
2022/08/04 01:06:33;;;;;;;4.97;3.35;;;19.30;99.90;;;;;;5078853;28;20032;-80
2022/08/04 01:09:11;;;;;;;8.15;3.13;;;19.30;99.90;;;;;;5078060;28;20679;-80
2022/08/04 01:11:42;;;;;;;4.90;3.35;;;19.30;99.90;;;;;;5078028;28;20509;-80
2022/08/04 01:14:35;;;;;;;4.85;2.78;;;19.20;99.90;;;;;;5094312;22;20024;-80
2022/08/04 01:17:21;;;;;;;4.05;3.40;;;19.20;99.90;;;;;;5078058;28;20040;-81
2022/08/04 01:20:06;;;;;;;7.35;3.40;;;19.20;99.90;;;;;;5078890;28;20055;-81
2022/08/04 01:22:32;;;;;;;5.07;3.22;;;19.20;99.90;;;;;;5043710;28;20455;-81
2022/08/04 01:24:57;;;;;;;4.18;2.88;;;19.20;99.90;;;;;;5078054;28;20134;-81
2022/08/04 01:27:41;;;;;;;4.95;3.45;;;19.20;99.90;;;;;;5077730;28;20040;-81
2022/08/04 01:30:07;;;;;;;6.00;3.67;;;19.20;99.90;;;;;;5081234;28;20072;-80
2022/08/04 01:32:39;;;;;;;7.15;2.88;;;19.20;99.90;;;;;;5064067;28;20445;-80
2022/08/04 01:35:24;;;;;;;5.47;3.15;;;19.20;99.90;;;;;;5064193;28;20028;-81
2022/08/04 01:38:04;;;;;;;6.45;2.90;;;19.10;99.90;;;;;;5082064;28;20043;-81
2022/08/04 01:40:30;;;;;;;4.95;3.65;;;19.10;99.90;;;;;;5081879;28;20047;-81
2022/08/04 01:42:59;;;;;;;8.43;3.60;;;19.10;99.90;;;;;;5081773;28;20047;-81
2022/08/04 01:45:26;;;;;;;6.05;3.60;;;19.10;99.90;;;;;;5080621;28;20062;-81
2022/08/04 01:47:54;;;;;;;5.05;2.72;;;19.10;99.90;;;;;;5082287;28;20165;-81
2022/08/04 01:50:21;;;;;;;5.75;3.47;;;19.10;99.90;;;;;;5082098;28;20082;-80
2022/08/04 01:52:47;;;;;;;7.00;3.47;;;19.20;99.90;;;;;;5081483;28;20040;-81
2022/08/04 01:55:14;;;;;;;3.20;2.65;;;19.20;99.90;;;;;;5063522;28;20066;-81
2022/08/04 01:57:43;;;;;;;6.38;3.90;;;19.10;99.90;;;;;;5046317;28;20186;-80
2022/08/04 02:00:12;;;;;;;5.88;3.03;;;19.20;99.90;;;;;;5080922;28;20040;-80
2022/08/04 02:02:38;;;;;;;3.70;2.85;;;19.20;99.90;;;;;;5046725;28;20040;-81
2022/08/04 02:05:04;;;;;;;3.88;2.97;;;19.10;99.90;;;;;;5081277;28;20428;-80
2022/08/04 02:07:51;;;;;;;6.57;3.22;;;19.10;99.90;;;;;;5063472;28;20551;-80
2022/08/04 02:10:42;;;;;;;5.80;3.13;;;19.10;99.90;;;;;;5080740;28;20044;-81
2022/08/04 02:13:19;;;;;;;3.85;3.33;;;19.10;99.90;;;;;;5051951;28;20206;-80
2022/08/04 02:16:17;;;;;;;6.35;2.90;;;19.10;99.90;;;;;;5080977;28;20425;-80
2022/08/04 02:19:00;;;;;;;7.35;3.53;;;19.10;99.90;;;;;;5081013;28;20048;-80
2022/08/04 02:21:28;;;;;;;4.18;3.45;;;19.10;99.90;;;;;;5063530;28;20383;-80
2022/08/04 02:24:10;;;;;;;5.30;3.28;;;19.10;99.90;;;;;;5080873;28;20039;-81
2022/08/04 02:26:40;;;;;;;5.20;3.03;;;19.10;99.90;;;;;;5081265;28;20048;-81
2022/08/04 02:29:12;;;;;;;8.30;3.03;;;19.20;99.90;;;;;;5079713;28;20044;-81
2022/08/04 02:31:43;;;;;;;;;;;19.20;99.90;;;;;;5081569;28;20423;-80
2022/08/04 02:34:34;;;;;;;4.28;2.67;;;19.20;99.90;;;;;;5080733;28;20015;-81
2022/08/04 02:37:03;;;;;;;3.92;2.55;;;19.20;99.90;;;;;;5080764;28;20076;-80
2022/08/04 02:39:34;;;;;;;5.90;3.25;;;19.30;99.90;;;;;;5079437;28;20048;-80
2022/08/04 02:42:02;;;;;;;4.20;3.33;;;19.20;99.90;;;;;;5062506;28;20040;-81
2022/08/04 02:44:29;;;;;;;3.97;3.33;;;19.30;99.90;;;;;;5079627;28;20251;-80
2022/08/04 02:46:55;;;;;;;5.47;3.50;;;19.30;99.90;;;;;;5081150;28;20089;-80
2022/08/04 02:49:22;;;;;;;7.13;2.80;;;19.30;99.90;;;;;;5080739;28;20605;-80
2022/08/04 02:51:57;;;;;;;5.45;2.78;;;19.30;99.90;;;;;;5062677;28;20069;-80
2022/08/04 02:54:37;;;;;;;6.22;3.42;;;19.30;99.90;;;;;;5081176;28;20036;-81
2022/08/04 02:57:11;;;;;;;4.22;3.03;;;19.30;99.90;;;;;;5080025;28;20243;-81
2022/08/04 03:00:13;;;;;;;2.55;2.33;;;19.30;99.90;;;;;;5061456;28;20126;-80
2022/08/04 03:03:06;;;;;;;3.72;2.80;;;19.40;99.90;;;;;;5045637;28;20573;-80
2022/08/04 03:05:35;;;;;;;4.07;2.28;;;19.40;99.90;;;;;;5080104;28;20040;-81
2022/08/04 03:08:28;;;;;;;4.80;2.13;;;19.40;99.90;;;;;;5080424;28;20047;-81
2022/08/04 03:11:32;;;;;;;3.70;2.20;;;19.30;99.90;;;;;;5080809;28;20240;-81
2022/08/04 03:14:07;;;;;;;3.30;2.33;;;19.40;99.90;;;;;;5010866;28;20102;-80
2022/08/04 03:16:59;;;;;;;3.55;1.95;;;19.30;99.90;;;;;;5061972;28;20052;-81
2022/08/04 03:19:25;;;;;;;;;;;19.40;99.90;;;;;;5081317;28;20051;-81
2022/08/04 03:22:28;;;;;;;4.57;1.65;;;19.30;99.90;;;;;;5080166;28;19916;-81
2022/08/04 03:25:02;;;;;;;4.88;2.50;;;19.30;99.90;;;;;;5079691;28;20386;-80
2022/08/04 03:27:27;;;;;;;5.10;3.20;;;19.40;99.90;;;;;;5062043;28;20048;-80
2022/08/04 03:30:02;;;;;;;4.50;2.35;;;19.30;99.90;;;;;;5078947;28;20429;-80
2022/08/04 03:33:08;;;;;;;3.30;2.40;;;19.30;99.90;;;;;;5079968;28;20040;-81
2022/08/04 03:35:42;;;;;;;8.57;2.90;;;19.30;99.90;;;;;;5079290;28;20055;-80
2022/08/04 03:38:52;;;;;;;4.93;2.58;;;19.30;99.90;;;;;;5079585;28;20490;-81
2022/08/04 03:41:29;;;;;;;4.45;2.45;;;19.30;99.90;;;;;;5079995;28;20059;-80
2022/08/04 03:44:24;;;;;;;3.20;2.15;;;19.30;99.90;;;;;;5078368;28;20424;-80
2022/08/04 03:46:59;;;;;;;9.95;2.80;;;19.30;99.90;;;;;;5079839;28;20046;-81
2022/08/04 03:49:47;;;;;;;7.18;2.45;;;19.30;99.90;;;;;;5079673;28;20139;-80
2022/08/04 03:55:28;;;;;;;7.28;3.42;;;19.30;99.90;;;;;;5061378;28;20055;-81
2022/08/04 03:58:30;;;;;;;4.75;2.17;;;19.30;99.90;;;;;;5079551;28;20044;-80
2022/08/04 04:01:14;;;;;;;3.90;3.08;;;19.30;99.90;;;;;;5061080;28;20044;-80
2022/08/04 04:03:43;;;;;;;3.25;2.22;;;19.30;99.90;;;;;;5079012;28;20135;-81
2022/08/04 04:06:29;;;;;;;4.55;3.28;;;19.30;99.90;;;;;;5079105;28;20036;-81
2022/08/04 04:09:10;;;;;;;5.03;2.22;;;19.30;99.90;;;;;;5079187;28;20062;-80
2022/08/04 04:11:50;;;;;;;7.65;2.72;;;19.30;99.90;;;;;;5079530;28;20048;-81
2022/08/04 04:14:34;;;;;;;3.90;2.67;;;19.30;99.90;;;;;;5059884;28;20177;-81
2022/08/04 04:17:12;;;;;;;3.80;1.80;;;19.30;99.90;;;;;;5061109;28;20252;-81
2022/08/04 04:19:53;;;;;;;5.75;2.03;;;19.30;99.90;;;;;;5078767;28;20072;-81
2022/08/04 04:22:28;;;;;;;4.68;3.00;;;19.30;99.90;;;;;;5079121;28;20117;-81
2022/08/04 04:25:09;;;;;;;4.43;1.98;;;19.20;99.90;;;;;;5060258;28;20485;-81
2022/08/04 04:28:00;;;;;;;4.43;2.43;;;19.20;99.90;;;;;;5061043;28;20464;-81
2022/08/04 04:30:57;;;;;;;6.60;2.53;;;19.30;99.90;;;;;;5060660;28;20290;-81
2022/08/04 04:33:40;;;;;;;4.60;2.30;;;19.20;99.90;;;;;;5032601;28;20132;-80
2022/08/04 04:36:10;;;;;;;4.20;2.13;;;19.20;99.90;;;;;;5060127;28;20066;-81
2022/08/04 04:38:51;;;;;;;4.88;2.45;;;19.20;99.90;;;;;;5060698;28;20041;-81
2022/08/04 04:41:25;;;;;;;4.07;2.97;;;19.30;99.90;;;;;;5078676;28;20047;-81
2022/08/04 04:44:08;;;;;;;6.65;2.53;;;19.30;99.90;;;;;;5077794;28;20050;-81
2022/08/04 04:46:49;;;;;;;10.85;3.03;;;19.30;99.90;;;;;;5078422;28;20044;-81
2022/08/04 04:49:51;;;;;;;2.95;2.40;;;19.30;99.90;;;;;;5060385;28;20104;-80
2022/08/04 04:52:22;;;;;;;6.35;2.92;;;19.30;99.90;;;;;;5060385;28;20201;-81
2022/08/04 04:55:18;;;;;;;7.63;3.03;;;19.30;99.90;;;;;;5078296;28;20118;-80
2022/08/04 04:57:45;;;;;;;4.32;3.15;;;19.30;99.90;;;;;;5078304;28;20500;-81
2022/08/04 05:00:14;;;;;;;4.03;2.05;;;19.30;99.90;;;;;;5077483;28;20055;-81
2022/08/04 05:03:11;;;;;;;5.70;3.35;;;19.30;99.90;;;;;;5061981;28;20529;-81
2022/08/04 05:06:04;;;;;;;5.13;2.72;;;19.40;99.90;;;;;;5085060;28;20048;-81
2022/08/04 05:08:36;;;;;;;;;;;19.40;99.90;;;;;;5085444;28;20122;-81
2022/08/04 05:11:08;;;;;;;4.82;3.10;;;19.50;99.90;;;;;;5050829;28;19928;-81
2022/08/04 05:14:12;;;;;;;3.72;3.28;;;19.50;99.90;;;;;;5084072;28;20043;-80
2022/08/04 05:16:45;;;;;;;4.13;3.15;;;19.50;99.90;;;;;;5028286;28;20063;-80
2022/08/04 05:19:48;;;;;;;4.93;3.67;;;19.60;99.90;;;;;;5066822;28;20050;-81
2022/08/04 05:22:22;;;;;;;9.88;3.80;;;19.60;99.90;;;;;;5043577;28;20086;-81
2022/08/04 05:24:54;;;;;;;4.85;3.15;;;19.60;99.90;;;;;;5084558;28;20511;-81
2022/08/04 05:27:27;;;;;;;6.28;3.20;;;19.70;99.90;;;;;;5066525;28;20101;-81
2022/08/04 05:29:59;;;;;;;6.90;3.15;;;19.70;99.90;;;;;;5065941;28;20043;-81
2022/08/04 05:32:36;;;;;;;7.13;3.83;;;19.70;99.90;;;;;;5084274;28;20064;-80
2022/08/04 05:35:10;;;;;;;5.70;3.40;;;19.70;99.90;;;;;;5084951;28;20050;-80
2022/08/04 05:37:39;;;;;;;4.53;2.70;;;19.70;99.90;;;;;;5084580;28;20111;-81
2022/08/04 05:40:09;;;;;;;7.50;4.72;;;19.70;99.90;;;;;;5085325;28;20036;-81
2022/08/04 05:42:38;;;;;;;8.43;3.67;;;19.70;99.90;;;;;;5067302;28;20105;-81
2022/08/04 05:45:06;;;;;;;7.95;3.88;;;19.70;99.90;;;;;;5066460;28;20052;-81
2022/08/04 05:47:33;;;;;;;10.85;3.15;;;19.70;99.90;;;;;;5066740;28;20044;-81
2022/08/04 05:50:01;;;;;;;4.55;3.30;;;19.80;99.90;;;;;;5066235;28;20048;-80
2022/08/04 05:52:46;;;;;;;4.22;3.03;;;19.80;99.90;;;;;;5084560;28;20047;-81
2022/08/04 05:55:12;;;;;;;3.80;3.03;;;19.80;99.90;;;;;;5084228;28;20039;-81
2022/08/04 05:57:43;;;;;;;7.32;4.15;;;19.80;99.90;;;;;;5084315;28;20075;-81
2022/08/04 06:00:10;;;;;;;5.13;3.95;;;19.90;99.90;;;;;;5084780;28;20040;-81
2022/08/04 06:02:37;;;;;;;6.75;3.92;;;19.80;99.90;;;;;;5066799;28;20432;-81
2022/08/04 06:05:06;;;;;;;8.68;4.13;;;19.90;99.90;;;;;;5084798;28;20032;-81
2022/08/04 06:07:32;;;;;;;6.45;4.35;;;19.90;99.90;;;;;;5084337;28;20032;-81
2022/08/04 06:09:59;;;;;;;6.50;4.68;;;19.90;99.90;;;;;;5083799;28;20444;-81
2022/08/04 06:12:41;;;;;;;7.68;4.25;;;19.90;99.90;;;;;;5065925;28;20720;-81
2022/08/04 06:15:08;;;;;;;8.05;5.28;;;19.90;99.90;;;;;;5062967;28;20083;-81
2022/08/04 06:17:41;;;;;;;4.13;3.55;;;19.90;99.90;;;;;;5081198;28;20131;-81
2022/08/04 06:20:09;;;;;;;8.38;5.53;;;20.00;99.90;;;;;;5081427;28;20036;-81
2022/08/04 06:22:39;;;;;;;6.10;4.13;;;20.00;99.90;;;;;;5062977;28;20044;-81
2022/08/04 06:25:07;;;;;;;5.50;4.18;;;20.00;99.90;;;;;;5080953;28;20529;-81
2022/08/04 06:27:33;;;;;;;8.10;4.50;;;20.00;99.90;;;;;;5080810;28;20048;-81
2022/08/04 06:30:05;;;;;;;5.88;3.90;;;20.00;99.90;;;;;;5063028;28;20040;-81
2022/08/04 06:32:46;;;;;;;9.25;4.70;;;20.00;99.90;;;;;;5062856;28;20128;-80
2022/08/04 06:35:15;;;;;;;13.30;4.15;;;20.00;99.90;;;;;;5080998;28;20608;-80
2022/08/04 06:37:42;;;;;;;5.80;3.90;;;20.00;99.90;;;;;;5062599;28;20127;-80
2022/08/04 06:40:09;;;;;;;7.13;4.60;;;20.10;99.90;;;;;;5081192;28;20036;-80
2022/08/04 06:42:39;;;;;;;7.55;3.63;;;20.10;99.90;;;;;;5062376;28;20140;-81
2022/08/04 06:45:06;;;;;;;5.95;4.00;;;20.10;99.90;;;;;;5080853;28;20036;-85
2022/08/04 06:47:32;;;;;;;5.93;5.00;;;20.10;99.90;;;;;;5080644;28;20193;-80
2022/08/04 06:49:59;;;;;;;4.90;4.07;;;20.10;99.90;;;;;;5080776;28;20496;-80
2022/08/04 06:52:25;;;;;;;9.30;4.05;;;20.20;99.90;;;;;;5080385;28;20047;-80
2022/08/04 06:54:52;;;;;;;15.50;5.28;;;20.20;99.90;;;;;;5062142;28;20546;-80
2022/08/04 06:57:21;;;;;;;15.57;5.05;;;20.20;99.90;;;;;;5080458;28;20051;-81
2022/08/04 06:59:54;;;;;;;10.68;4.90;;;20.30;99.90;;;;;;5079128;28;20052;-80
2022/08/04 07:02:22;;;;;;;5.97;4.47;;;20.30;99.90;;;;;;5080490;28;20032;-80
2022/08/04 07:04:48;;;;;;;5.85;4.32;;;20.30;99.90;;;;;;5080584;28;20453;-80
2022/08/04 07:07:15;;;;;;;11.07;5.15;;;20.30;99.90;;;;;;5080115;28;20054;-80
2022/08/04 07:09:41;;;;;;;9.35;5.72;;;20.30;99.90;;;;;;5080541;28;20273;-80
2022/08/04 07:12:07;;;;;;;7.75;4.60;;;20.30;99.90;;;;;;5062357;28;20135;-80
2022/08/04 07:14:37;;;;;;;8.15;5.38;;;20.40;99.90;;;;;;5078709;28;20097;-80
2022/08/04 07:17:08;;;;;;;9.88;4.70;;;20.40;99.90;;;;;;5080109;28;20117;-80
2022/08/04 07:19:35;;;;;;;5.90;4.03;;;20.40;99.90;;;;;;5061862;28;20488;-80
2022/08/04 07:22:07;;;;;;;12.30;5.30;;;20.40;99.90;;;;;;5062027;28;20040;-80
2022/08/04 07:24:34;;;;;;;5.55;4.30;;;20.40;99.90;;;;;;5079640;28;20436;-80
2022/08/04 07:27:00;;;;;;;8.85;4.50;;;20.50;99.90;;;;;;5061044;28;20044;-80
2022/08/04 07:29:27;;;;;;;7.13;4.80;;;20.50;99.90;;;;;;5078855;28;20079;-80
2022/08/04 07:31:55;;;;;;;6.82;5.35;;;20.50;99.90;;;;;;5079756;28;20140;-80
2022/08/04 07:34:21;;;;;;;6.22;4.82;;;20.50;99.90;;;;;;5079288;28;20704;-80
2022/08/04 07:36:48;;;;;;;6.07;4.05;;;20.60;99.90;;;;;;5061675;28;20040;-80
2022/08/04 07:39:14;;;;;;;9.07;4.85;;;20.70;99.90;;;;;;5061935;28;20040;-79
2022/08/04 07:41:42;;;;;;;7.70;5.15;;;20.70;99.90;;;;;;5079724;28;20051;-80
2022/08/04 07:44:08;;;;;;;5.95;3.65;;;20.70;99.90;;;;;;5078573;28;20242;-80
2022/08/04 07:46:37;;;;;;;7.90;4.20;;;20.80;99.90;;;;;;5079615;28;20043;-80
2022/08/04 07:49:05;;;;;;;9.45;4.43;;;20.80;99.90;;;;;;5044754;28;20059;-80
2022/08/04 07:51:31;;;;;;;6.32;4.45;;;20.80;99.90;;;;;;5061513;28;20052;-80
2022/08/04 07:53:59;;;;;;;5.90;4.47;;;20.90;99.90;;;;;;5079311;28;20044;-80
2022/08/04 07:56:25;;;;;;;6.25;4.72;;;20.90;99.90;;;;;;5061308;28;20067;-80
2022/08/04 07:58:51;;;;;;;5.00;4.28;;;21.00;99.90;;;;;;5078260;28;20533;-80
2022/08/04 08:01:18;;;;;;;4.35;3.58;;;21.10;99.90;;;;;;5061175;28;20280;-80
2022/08/04 08:03:44;;;;;;;11.50;4.13;;;21.10;99.90;;;;;;5079482;28;20072;-80
2022/08/04 08:06:10;;;;;;;4.72;4.18;;;21.20;99.90;;;;;;5079320;28;20270;-81
2022/08/04 08:08:39;;;;;;;7.25;4.93;;;21.20;99.90;;;;;;5078738;28;20040;-81
2022/08/04 08:11:08;;;;;;;5.47;3.53;;;21.30;99.90;;;;;;5079484;28;20100;-80
2022/08/04 08:13:35;;;;;;;6.60;3.65;;;21.40;99.90;;;;;;5060248;28;20389;-80
2022/08/04 08:16:01;;;;;;;6.32;2.92;;;21.40;99.90;;;;;;5078465;28;20078;-80
2022/08/04 08:18:28;;;;;;;9.52;4.43;;;21.50;99.90;;;;;;5078518;28;20051;-81
2022/08/04 08:20:54;;;;;;;5.30;3.78;;;21.60;99.90;;;;;;5078967;28;20127;-80
2022/08/04 08:23:20;;;;;;;4.47;3.28;;;21.60;99.90;;;;;;5078621;28;20119;-80
2022/08/04 08:25:46;;;;;;;5.20;3.13;;;21.70;99.90;;;;;;5061140;28;20119;-80
2022/08/04 08:28:11;;;;;;;8.73;4.35;;;21.70;99.90;;;;;;5078507;28;20504;-81
2022/08/04 08:30:37;;;;;;;13.40;3.17;;;21.80;99.90;;;;;;5078655;28;20093;-81
2022/08/04 08:33:05;;;;;;;8.93;3.38;;;21.90;99.90;;;;;;5060569;28;20032;-80
2022/08/04 08:35:52;;;;;;;4.72;2.60;;;21.90;99.90;;;;;;5060411;28;20124;-80
2022/08/04 08:38:26;;;;;;;2.42;1.98;;;22.00;99.90;;;;;;5078235;28;20492;-80
2022/08/04 08:41:29;;;;;;;3.85;2.35;;;22.10;99.90;;;;;;5078364;28;20032;-80
2022/08/04 08:44:04;;;;;;;2.53;2.30;;;22.10;99.90;;;;;;5077168;28;20560;-80
2022/08/04 08:46:32;;;;;;;2.55;1.60;;;22.10;99.90;;;;;;5078405;28;20040;-80
2022/08/04 08:49:24;;;;;;;1.60;1.45;;;22.20;99.90;;;;;;5078247;28;20477;-80
2022/08/04 08:51:57;;;;;;;;;;;22.30;99.90;;;;;;5060940;28;20080;-81
2022/08/04 08:54:35;;;;;;;3.60;1.55;;;22.30;99.90;;;;;;5078142;28;20093;-81
2022/08/04 08:57:07;;;;;;;1.33;1.23;;;22.30;99.90;;;;;;5078473;28;20044;-81
2022/08/04 08:59:56;;;;;;;2.20;1.35;;;22.30;99.90;;;;;;5077529;28;20044;-80
2022/08/04 09:02:58;;;;;;;0.98;0.88;;;22.30;99.90;;;;;;5078181;28;21106;-81
2022/08/04 09:05:45;;;;;;;3.00;1.85;;;22.30;99.90;;;;;;5078677;28;20043;-81
2022/08/04 09:08:43;;;;;;;1.35;1.13;;;22.30;99.90;;;;;;5060189;28;20048;-81
2022/08/04 09:11:13;;;;;;;1.88;1.63;;;22.40;99.90;;;;;;5078068;28;20704;-80
2022/08/04 09:13:46;;;;;;;0.95;0.95;;;22.40;99.90;;;;;;5042450;28;20075;-80
2022/08/04 09:16:41;;;;;;;1.13;1.02;;;22.50;99.90;;;;;;5059366;28;20044;-81
2022/08/04 09:19:30;;;;;;;0.85;0.63;;;22.60;99.90;;;;;;5060319;28;20040;-81
2022/08/04 09:22:12;;;;;;;2.58;1.92;;;22.60;99.90;;;;;;5078246;28;20261;-81
2022/08/04 09:24:57;;;;;;;1.27;0.95;;;22.70;99.90;;;;;;5077355;28;20036;-81
2022/08/04 09:27:34;;;;;;;1.35;1.25;;;22.80;99.90;;;;;;5077506;28;20181;-81
2022/08/04 09:30:08;;;;;;;0.65;0.65;;;22.80;99.90;;;;;;5059593;28;20048;-80
2022/08/04 09:32:37;;;;;;;2.28;0.90;;;22.90;99.90;;;;;;5078262;28;20028;-80
2022/08/04 09:35:41;;;;;;;2.30;1.00;;;23.00;99.90;;;;;;5077475;28;20538;-81
2022/08/04 09:38:40;;;;;;;9.93;1.75;;;23.00;99.90;;;;;;5041773;28;20542;-80
2022/08/04 09:41:29;;;;;;;1.10;1.10;;;23.00;99.90;;;;;;5059855;28;20055;-81
2022/08/04 09:44:11;;;;;;;8.57;1.33;;;23.00;99.90;;;;;;5058789;28;20044;-82
2022/08/04 09:46:49;;;;;;;0.93;0.80;;;23.00;99.90;;;;;;5059644;28;20047;-82
2022/08/04 09:49:23;;;;;;;1.15;0.88;;;23.00;99.90;;;;;;5079657;28;20316;-82
2022/08/04 09:52:05;;;;;;;4.13;1.52;;;23.00;99.90;;;;;;5063203;28;20042;-82
2022/08/04 09:54:44;;;;;;;1.27;1.17;;;23.10;99.90;;;;;;5081557;28;20044;-81
2022/08/04 09:57:30;;;;;;;1.23;1.08;;;23.10;99.90;;;;;;5062339;28;20048;-82
2022/08/04 10:00:06;;;;;;;2.88;1.95;;;23.10;99.90;;;;;;5081134;28;20043;-82
2022/08/04 10:02:38;;;;;;;1.20;1.10;;;23.10;99.90;;;;;;5082337;28;20109;-82
2022/08/04 10:05:10;;;;;;;1.52;1.30;;;23.10;99.90;;;;;;5081423;28;20070;-82
2022/08/04 10:07:36;;;;;;;2.35;1.23;;;23.10;99.90;;;;;;5081443;28;20036;-82
2022/08/04 10:10:27;;;;;;;0.98;0.98;;;23.10;99.90;;;;;;5081385;28;20502;-81
2022/08/04 10:13:12;;;;;;;4.28;0.93;;;23.10;99.90;;;;;;5080632;28;20071;-81
2022/08/04 10:16:04;;;;;;;2.35;1.38;;;23.10;99.90;;;;;;5081031;28;20060;-81
2022/08/04 10:19:04;;;;;;;6.35;1.23;;;23.10;99.90;;;;;;5081343;28;20083;-81
2022/08/04 10:21:59;;;;;;;1.58;1.20;;;23.10;99.90;;;;;;5057304;28;20409;-82
2022/08/04 10:25:02;;;;;;;1.95;0.88;;;23.20;99.90;;;;;;5080817;28;20051;-81
2022/08/04 10:27:49;;;;;;;1.13;1.02;;;23.30;99.90;;;;;;5080204;28;20040;-81
2022/08/04 10:30:17;;;;;;;1.08;0.98;;;23.30;99.90;;;;;;5080641;28;20074;-81
2022/08/04 10:33:01;;;;;;;1.35;1.25;;;23.30;99.90;;;;;;5081195;28;20032;-81
2022/08/04 10:35:33;;;;;;;2.80;0.95;;;23.30;99.90;;;;;;5081027;28;20048;-81
2022/08/04 10:38:12;;;;;;;4.40;1.00;;;23.20;99.90;;;;;;5080886;28;20048;-81
2022/08/04 10:40:44;;;;;;;1.05;0.95;;;23.20;99.90;;;;;;5080389;28;20518;-80
2022/08/04 10:43:28;;;;;;;;;;;23.20;99.90;;;;;;5080619;28;20323;-81
2022/08/04 10:46:08;;;;;;;1.27;1.02;;;23.20;99.90;;;;;;5081220;28;20030;-81
2022/08/04 10:48:52;;;;;;;1.65;1.00;;;23.20;99.90;;;;;;5080587;28;20604;-81
2022/08/04 10:51:23;;;;;;;2.92;1.00;;;23.20;99.90;;;;;;5080789;28;20044;-81
2022/08/04 10:54:02;;;;;;;1.90;1.27;;;23.30;99.90;;;;;;5062758;28;20352;-81
2022/08/04 10:56:55;;;;;;;1.25;1.13;;;23.40;99.90;;;;;;5080181;28;20055;-81
2022/08/04 10:59:26;;;;;;;1.55;0.98;;;23.30;99.90;;;;;;5045599;28;20052;-82
2022/08/04 11:02:01;;;;;;;1.17;1.00;;;23.40;99.90;;;;;;5080231;28;20576;-82
2022/08/04 11:04:43;;;;;;;1.13;0.90;;;23.40;99.90;;;;;;5080534;28;20295;-82
2022/08/04 11:07:11;;;;;;;1.75;1.30;;;23.40;99.90;;;;;;5080471;28;20040;-81
2022/08/04 11:09:39;;;;;;;0.95;0.95;;;23.40;99.90;;;;;;5080213;28;20051;-81
2022/08/04 11:12:05;;;;;;;1.80;0.77;;;23.40;99.90;;;;;;5060772;28;20043;-82
2022/08/04 11:14:38;;;;;;;1.45;1.17;;;23.40;99.90;;;;;;5079989;28;20059;-82
2022/08/04 11:17:13;;;;;;;4.00;1.98;;;23.40;99.90;;;;;;5079629;28;20120;-82
2022/08/04 11:19:47;;;;;;;1.15;1.05;;;23.40;99.90;;;;;;5080081;28;20705;-81
2022/08/04 11:22:37;;;;;;;0.93;0.85;;;23.50;99.90;;;;;;5061955;28;20085;-81
2022/08/04 11:25:13;;;;;;;1.73;1.23;;;23.40;99.90;;;;;;5079743;28;20509;-82
2022/08/04 11:27:52;;;;;;;2.42;1.40;;;23.50;99.90;;;;;;5078808;28;20421;-82
2022/08/04 11:30:18;;;;;;;3.13;1.70;;;23.50;99.90;;;;;;5079813;28;20678;-82
2022/08/04 11:32:58;;;;;;;1.45;1.13;;;23.50;99.90;;;;;;5079425;28;20048;-82
2022/08/04 11:35:34;;;;;;;1.17;1.10;;;23.50;99.90;;;;;;5080618;28;20130;-82
2022/08/04 11:38:21;;;;;;;1.45;1.10;;;23.60;99.90;;;;;;5079428;28;20122;-82
2022/08/04 11:40:50;;;;;;;1.27;1.17;;;23.60;99.90;;;;;;5061491;28;20076;-81
2022/08/04 11:43:24;;;;;;;4.82;1.38;;;23.60;99.90;;;;;;5078314;28;20123;-82
2022/08/04 11:45:55;;;;;;;1.35;0.75;;;23.60;99.90;;;;;;5079369;28;20042;-81
2022/08/04 11:48:28;;;;;;;2.13;1.20;;;23.60;99.90;;;;;;5079108;28;20036;-82
2022/08/04 11:50:55;;;;;;;1.35;1.25;;;23.60;99.90;;;;;;5061681;28;20059;-82
2022/08/04 11:53:24;;;;;;;2.60;1.30;;;23.70;99.90;;;;;;5079634;28;20039;-82
2022/08/04 11:55:53;;;;;;;1.02;0.93;;;23.60;99.90;;;;;;5060703;28;20510;-81
2022/08/04 11:58:20;;;;;;;1.67;1.10;;;23.60;99.90;;;;;;5078771;28;20052;-81
2022/08/04 12:01:15;;;;;;;0.90;0.90;;;23.60;99.90;;;;;;5079379;28;20036;-81
2022/08/04 12:04:00;;;;;;;0.98;0.93;;;23.60;99.90;;;;;;5070141;28;20499;-81
2022/08/04 12:06:48;;;;;;;1.38;1.20;;;23.60;99.90;;;;;;5079963;28;20123;-81
2022/08/04 12:09:32;;;;;;;1.27;1.08;;;23.60;99.90;;;;;;5061322;28;20044;-81
2022/08/04 12:12:31;;;;;;;2.15;0.90;;;23.70;99.90;;;;;;5078076;28;20052;-82
2022/08/04 12:15:22;;;;;;;1.55;1.02;;;23.70;99.90;;;;;;5079233;28;20052;-82
2022/08/04 12:18:11;;;;;;;4.18;1.17;;;23.80;99.90;;;;;;5060874;28;20413;-81
2022/08/04 12:20:44;;;;;;;1.92;1.52;;;23.80;99.90;;;;;;5078816;28;20048;-81
2022/08/04 12:23:23;;;;;;;2.85;1.30;;;23.80;99.90;;;;;;5078967;28;20043;-81
2022/08/04 12:25:53;;;;;;;1.23;1.10;;;23.90;99.90;;;;;;5078344;28;20072;-82
2022/08/04 12:28:25;;;;;;;1.55;1.27;;;23.90;99.90;;;;;;5078033;28;20044;-82
2022/08/04 12:31:01;;;;;;;1.63;1.35;;;23.80;99.90;;;;;;5078684;28;20455;-82
2022/08/04 12:34:05;;;;;;;1.88;1.20;;;23.90;99.90;;;;;;5079210;28;20036;-82
2022/08/04 12:36:43;;;;;;;1.65;1.55;;;23.90;99.90;;;;;;5060680;28;20052;-82
2022/08/04 12:39:14;;;;;;;1.67;1.30;;;24.00;99.90;;;;;;5060801;28;20513;-82
2022/08/04 12:42:06;;;;;;;1.05;1.00;;;24.00;99.90;;;;;;5059719;28;20115;-82
2022/08/04 12:44:35;;;;;;;2.88;1.73;;;23.90;99.90;;;;;;5059873;28;20063;-83
2022/08/04 12:47:05;;;;;;;2.67;1.40;;;24.00;99.90;;;;;;5078668;28;20036;-82
2022/08/04 12:49:33;;;;;;;1.58;1.15;;;23.90;99.90;;;;;;5060611;28;20127;-82
2022/08/04 12:51:59;;;;;;;1.45;1.33;;;24.00;99.90;;;;;;5060486;28;20406;-82
2022/08/04 12:54:26;;;;;;;1.42;1.33;;;23.90;99.90;;;;;;5078359;28;20036;-82
2022/08/04 12:56:57;;;;;;;6.88;1.67;;;23.90;99.90;;;;;;5059510;28;20052;-82
2022/08/04 12:59:23;;;;;;;3.25;1.70;;;23.90;99.90;;;;;;5059992;28;20075;-82
2022/08/04 13:01:50;;;;;;;1.50;1.30;;;23.90;99.90;;;;;;5060160;28;20494;-82
2022/08/04 13:04:18;;;;;;;8.80;1.77;;;23.90;99.90;;;;;;5078601;28;20055;-82
2022/08/04 13:06:50;;;;;;;4.65;1.80;;;23.80;99.90;;;;;;5078296;28;20051;-82
2022/08/04 13:09:19;;;;;;;3.00;1.90;;;23.90;99.90;;;;;;5078793;28;20119;-81
2022/08/04 13:12:01;;;;;;;2.38;1.75;;;23.90;99.90;;;;;;5077326;28;20116;-81
2022/08/04 13:14:36;;;;;;;1.88;1.50;;;23.90;99.90;;;;;;5078157;28;20117;-81
2022/08/04 13:17:04;;;;;;;4.97;1.48;;;23.90;99.90;;;;;;5078128;28;20097;-81
2022/08/04 13:19:30;;;;;;;5.63;1.25;;;23.80;99.90;;;;;;5060450;28;20047;-81
2022/08/04 13:21:58;;;;;;;1.90;1.45;;;23.80;99.90;;;;;;5060166;28;20047;-82
2022/08/04 13:24:26;;;;;;;5.22;1.70;;;23.80;99.90;;;;;;5079434;28;20039;-82
2022/08/04 13:27:04;;;;;;;4.50;1.60;;;23.80;99.90;;;;;;5063343;28;20452;-81
2022/08/04 13:29:36;;;;;;;3.10;2.80;;;23.80;99.90;;;;;;5082195;28;20583;-82
2022/08/04 13:32:03;;;;;;;4.38;1.30;;;23.80;99.90;;;;;;5082363;28;20572;-82
2022/08/04 13:34:30;;;;;;;3.60;1.60;;;23.80;99.90;;;;;;5082175;28;20042;-82
2022/08/04 13:36:57;;;;;;;2.00;1.10;;;23.90;99.90;;;;;;5082034;28;20044;-81